Latest Weather Observations for Fortescue Dave Forrest

IDW60801

Issued at 6:05 pm WST Thursday 21 August 2014 (issued every 30 minutes, with the page automatically refreshed every 10 minutes)

About weather observations | Map of weather stations | Latest weather observations for WA | Other Formats
Station Details ID: 505056 Name: FORTESCUE DAVE FORREST Lat: -22.29 Lon: 119.43 Height: 474.6 m
Data from the previous 72 hours. | See also: Recent months for locations in Western Australia
Date/Time
WST
Temp
°C
App
Temp
°C
Dew
Point
Rel
Hum
%
Delta-T
°C
Wind Press
QNH
hPa
Press
MSL
hPa
Rain
since 9 am
mm
Dir
 
Spd
km/h
Gust
km/h
Spd
kts
Gust
kts
21/06:00pm 23.9 19.5 -2.7 17 11.8 N 11 13 6 7 1016.4 1015.2 0.0
21/05:30pm 25.7 20.5 -2.7 15 12.8 N 15 22 8 12 1016.1 1014.9 0.0
21/05:00pm 26.7 20.7 -2.8 14 13.4 N 19 28 10 15 1015.9 1014.7 0.0
21/04:30pm 26.8 20.3 -2.7 14 13.4 N 22 30 12 16 1015.8 1014.6 0.0
21/04:00pm 27.3 21.1 -3.2 13 13.8 NNW 20 32 11 17 1015.5 1014.4 0.0
21/03:30pm 27.8 21.2 -3.2 13 14.1 N 22 39 12 21 1015.3 1014.1 0.0
21/03:00pm 28.0 21.4 -3.4 12 14.2 NW 22 32 12 17 1015.4 1014.3 0.0
21/02:30pm 27.9 21.8 -2.7 13 14.0 N 20 28 11 15 1015.5 1014.4 0.0
21/02:00pm 27.6 20.9 -3.8 12 14.1 NW 22 33 12 18 1015.8 1014.6 0.0
21/01:30pm 27.4 21.1 -3.6 13 13.9 NNW 20 32 11 17 1015.9 1014.7 0.0
21/01:00pm 26.9 22.4 -3.6 13 13.6 NNE 11 22 6 12 1016.2 1015.0 0.0
21/12:30pm 27.1 21.3 -4.2 12 13.9 N 17 28 9 15 1016.6 1015.4 0.0
21/12:00pm 26.5 20.8 -3.7 13 13.4 NNE 17 26 9 14 1016.9 1015.7 0.0
21/11:30am 26.7 20.6 -4.3 12 13.7 N 19 24 10 13 1017.3 1016.2 0.0
21/11:00am 25.5 22.0 -2.7 15 12.7 E 6 17 3 9 1017.8 1016.7 0.0
21/10:30am 25.1 21.6 -1.4 17 12.2 S 7 13 4 7 1018.2 1017.0 0.0
21/10:00am 24.1 20.3 -0.6 19 11.4 SSE 9 17 5 9 1018.6 1017.4 0.0
21/09:30am 23.1 19.8 -0.1 21 10.8 SSW 7 13 4 7 1018.7 1017.5 0.0
21/09:00am 21.6 17.8 -0.8 22 10.1 S 9 15 5 8 1018.7 1017.5 -
21/08:30am 20.0 16.8 -0.4 25 9.2 SSW 6 9 3 5 1018.6 1017.4 -
21/08:00am 18.2 15.0 -0.7 28 8.3 SW 6 7 3 4 1018.2 1017.0 -
21/07:30am 16.9 13.7 -0.5 30 7.6 WSW 6 7 3 4 1018.0 1016.8 -
21/07:00am 14.8 11.9 -0.8 34 6.6 W 4 6 2 3 1017.5 1016.4 -
21/06:30am 14.5 11.2 -0.9 34 6.5 W 6 9 3 5 1017.2 1016.1 -
21/06:00am 14.7 12.2 -0.8 34 6.6 W 2 6 1 3 1017.0 1015.8 -
21/05:30am 14.5 11.7 -0.7 35 6.5 W 4 9 2 5 1016.8 1015.6 -
21/05:00am 16.7 12.9 -0.7 30 7.5 W 9 17 5 9 1016.5 1015.3 -
21/04:30am 16.3 11.7 -0.8 31 7.4 W 13 19 7 10 1016.4 1015.2 -
21/04:00am 16.5 11.5 -1.2 30 7.6 W 15 19 8 10 1016.3 1015.1 -
21/03:30am 15.9 11.7 -1.2 31 7.3 WNW 11 15 6 8 1016.4 1015.2 -
21/03:00am 15.5 11.4 -0.5 33 6.9 WNW 11 15 6 8 1016.4 1015.2 0.0
21/02:30am 14.2 10.2 0.6 39 5.9 WNW 11 13 6 7 1016.5 1015.3 -
21/02:00am 13.9 10.3 0.7 40 5.8 WNW 9 9 5 5 1016.8 1015.6 -
21/01:30am 15.7 12.7 0.7 36 6.7 NNW 6 9 3 5 1017.1 1015.9 -
21/01:00am 16.9 12.6 0.7 33 7.2 WNW 13 17 7 9 1017.3 1016.2 -
21/12:30am 17.0 12.9 0.1 32 7.5 NNW 11 15 6 8 1017.4 1016.3 -
21/12:00am 17.3 13.9 -0.4 30 7.8 NW 7 11 4 6 1017.5 1016.4 -
 
Date/Time
WST
Temp
°C
App
Temp
°C
Dew
Point
Rel
Hum
%
Delta-T
°C
Wind Press
QNH
hPa
Press
MSL
hPa
Rain
since 9 am
mm
Dir
 
Spd
km/h
Gust
km/h
Spd
kts
Gust
kts
20/11:30pm 17.4 14.0 -0.6 29 7.9 NW 7 13 4 7 1017.7 1016.6 -
20/11:00pm 18.7 14.1 -1.0 26 8.6 NW 13 17 7 9 1017.7 1016.6 -
20/10:30pm 18.6 14.0 -1.1 26 8.6 NNW 13 19 7 10 1017.8 1016.7 -
20/10:00pm 17.6 14.0 -2.1 26 8.4 N 7 11 4 6 1017.6 1016.5 -
20/09:30pm 17.7 14.1 -2.1 26 8.4 NNW 7 7 4 4 1017.7 1016.6 -
20/09:00pm 18.3 14.7 -2.0 25 8.7 NNW 7 11 4 6 1017.7 1016.6 0.0
20/08:30pm 18.1 14.5 -1.8 26 8.6 N 7 11 4 6 1017.7 1016.6 -
20/08:00pm 19.2 14.9 -1.9 24 9.1 NNW 11 11 6 6 1017.5 1016.4 -
20/07:30pm 19.2 15.3 -1.8 24 9.1 NNW 9 9 5 5 1017.1 1015.9 -
20/07:00pm 20.9 16.5 -2.1 21 10.1 N 11 13 6 7 1016.8 1015.6 -
20/06:30pm 21.5 17.5 -2.1 20 10.4 N 9 11 5 6 1016.5 1015.3 -
20/06:00pm 23.3 19.3 -2.1 18 11.3 NNW 9 11 5 6 1016.3 1015.1 -
20/05:30pm 25.4 20.6 -2.4 16 12.6 NNW 13 19 7 10 1015.9 1014.7 -
20/05:00pm 26.2 21.9 -2.0 15 12.9 NW 11 17 6 9 1015.7 1014.5 -
20/04:30pm 26.5 21.4 -1.9 15 13.1 NW 15 24 8 13 1015.5 1014.4 -
20/04:00pm 26.6 21.5 -1.9 15 13.1 WNW 15 20 8 11 1015.5 1014.4 -
20/03:30pm 26.7 22.8 -1.5 15 13.1 NW 9 19 5 10 1015.7 1014.5 -
20/03:00pm 26.6 21.1 -1.9 15 13.1 N 17 28 9 15 1015.7 1014.5 -
20/02:30pm 26.5 21.9 -1.3 16 12.9 NNE 13 19 7 10 1015.9 1014.7 -
20/02:00pm 26.5 22.3 -1.1 16 12.9 NNE 11 24 6 13 1016.2 1015.0 -
20/01:30pm 25.8 21.7 -0.5 17 12.4 N 11 20 6 11 1016.4 1015.2 -
20/01:00pm 26.0 22.8 -0.3 18 12.4 SSE 6 13 3 7 1017.0 1015.8 -
20/12:30pm 25.4 20.6 -0.1 18 12.0 N 15 24 8 13 1017.6 1016.5 -
20/12:00pm 25.2 22.1 1.2 21 11.6 SE 7 19 4 10 1018.2 1017.0 -
20/11:30am 24.5 21.1 1.9 23 11.0 SE 9 15 5 8 1018.7 1017.5 -
20/11:00am 24.0 19.2 2.5 24 10.5 ESE 17 22 9 12 1019.2 1018.1 -
20/10:30am 23.4 19.4 2.6 25 10.2 SE 13 22 7 12 1019.5 1018.4 -
20/10:00am 23.1 18.8 3.4 27 9.7 SSE 15 22 8 12 1019.7 1018.6 -
20/09:30am 21.6 17.3 3.1 29 9.0 SE 15 22 8 12 1019.8 1018.7 -
20/09:00am 20.7 16.3 2.6 30 8.7 SE 15 24 8 13 1019.7 1018.6 0.0
20/08:30am 19.4 15.4 2.8 33 7.9 SSE 13 22 7 12 1019.5 - 0.0
20/08:00am 18.4 15.1 2.7 35 7.4 SSE 9 17 5 9 1019.4 1018.3 0.0
20/07:30am 16.4 13.1 2.3 38 6.5 SSE 9 15 5 8 1019.2 - 0.0
20/07:00am 14.2 10.8 1.7 42 5.6 S 9 15 5 8 1019.0 1017.8 0.0
20/06:30am 13.0 9.5 1.1 44 5.2 S 9 11 5 6 1018.7 - 0.0
20/06:00am 13.1 9.5 0.3 41 5.5 S 9 9 5 5 1018.5 1017.3 0.0
20/05:30am 13.2 10.1 0.1 40 5.6 S 6 7 3 4 1018.2 - 0.0
20/05:00am 13.9 10.5 -0.7 36 6.2 S 7 9 4 5 1018.0 1016.8 0.0
20/04:30am 13.3 10.7 -1.8 35 6.2 SSW 2 6 1 3 1017.6 - 0.0
20/04:00am 13.0 9.6 -1.7 36 6.0 WSW 6 7 3 4 1017.5 1016.4 0.0
20/03:30am 13.7 11.1 -1.8 34 6.4 W 2 4 1 2 1017.5 - 0.0
20/03:00am 14.6 11.6 -1.8 32 6.8 WNW 4 7 2 4 1017.3 1016.2 0.0
20/02:30am 15.7 12.7 -1.9 30 7.4 W 4 6 2 3 1017.3 - 0.0
20/02:00am 16.7 13.7 -2.2 27 7.9 W 4 7 2 4 1017.4 1016.3 0.0
20/01:30am 16.2 13.2 -2.2 28 7.7 SW 4 7 2 4 1017.7 - 0.0
20/01:00am 17.0 12.3 -2.0 27 8.0 W 13 17 7 9 1017.8 1016.7 0.0
20/12:30am 17.0 12.3 -1.5 28 7.9 W 13 20 7 11 1018.0 - 0.0
20/12:00am 14.9 11.4 -2.5 30 7.1 NNW 6 9 3 5 1018.2 1017.0 0.0
 
Date/Time
WST
Temp
°C
App
Temp
°C
Dew
Point
Rel
Hum
%
Delta-T
°C
Wind Press
QNH
hPa
Press
MSL
hPa
Rain
since 9 am
mm
Dir
 
Spd
km/h
Gust
km/h
Spd
kts
Gust
kts
19/11:30pm 16.2 12.1 -2.9 27 7.9 WNW 9 15 5 8 1018.5 - 0.0
19/11:00pm 18.5 13.6 -3.1 23 9.1 W 13 17 7 9 1018.7 1017.5 0.0
19/10:36pm 17.0 13.2 -3.4 24 8.4 NNW 7 9 4 5 1018.5 - 0.0
19/10:30pm 16.9 13.3 -3.4 24 8.3 NNW 6 9 3 5 1018.5 - 0.0
19/10:12pm 16.8 13.1 -3.2 25 8.2 N 7 9 4 5 1018.4 - 0.0
19/10:00pm 17.4 13.3 -3.3 24 8.6 N 9 9 5 5 1018.4 1017.2 0.0
19/09:30pm 17.9 13.8 -3.1 23 8.8 NNE 9 11 5 6 1018.6 - 0.0
19/09:00pm 17.5 14.0 -3.0 24 8.5 N 6 6 3 3 1018.6 1017.4 0.0
19/08:30pm 18.3 14.2 -2.8 23 8.9 NNE 9 11 5 6 1018.4 - 0.0
19/08:00pm 18.8 14.7 -2.9 23 9.2 NNE 9 11 5 6 1018.2 1017.0 0.0
19/07:30pm 19.3 14.9 -2.8 22 9.4 NNE 11 13 6 7 1018.0 - 0.0
19/07:00pm 19.9 15.8 -2.9 21 9.7 N 9 9 5 5 1017.7 1016.6 0.0
19/06:30pm 21.1 16.6 -3.3 19 10.5 N 11 13 6 7 1017.5 - 0.0
19/06:00pm 22.9 19.1 -3.6 17 11.5 NNW 7 9 4 5 1017.2 1016.1 0.0
19/05:30pm 25.1 20.5 -4.3 14 12.8 NNW 11 15 6 8 1017.1 - 0.0
19/05:00pm 25.8 20.4 -4.3 13 13.2 N 15 24 8 13 1017.0 1015.8 0.0
19/04:30pm 26.0 20.6 -4.7 13 13.4 W 15 33 8 18 1016.9 - 0.0
19/04:00pm 26.2 21.2 -4.3 13 13.4 WNW 13 20 7 11 1017.0 1015.8 0.0
19/03:30pm 26.6 20.3 -4.4 12 13.7 NW 20 24 11 13 1017.0 - 0.0
19/03:00pm 26.4 21.0 -4.4 13 13.5 WSW 15 26 8 14 1017.1 1015.9 0.0
19/02:30pm 25.7 21.8 -4.4 13 13.2 NNW 7 15 4 8 1017.5 - 0.0
19/02:00pm 25.4 20.4 -4.4 13 13.0 WNW 13 20 7 11 1017.7 1016.6 0.0
19/01:30pm 25.3 20.6 -4.7 13 13.0 WNW 11 22 6 12 1018.1 - 0.0
19/01:00pm 25.3 21.0 -4.4 13 12.9 N 9 19 5 10 1018.4 1017.2 0.0
19/12:30pm 24.7 19.7 -4.3 14 12.6 NW 13 22 7 12 1019.0 - 0.0
19/12:00pm 24.6 20.8 -4.0 14 12.4 NNW 7 19 4 10 1019.4 1018.3 0.0
19/11:30am 23.8 19.2 -4.0 15 12.0 W 11 19 6 10 1019.8 - 0.0
19/11:00am 23.7 20.1 -4.0 15 12.0 N 6 15 3 8 1020.4 1019.2 0.0
19/10:30am 23.5 19.8 -3.3 16 11.7 NNW 7 15 4 8 1020.6 - 0.0
19/10:00am 22.8 18.6 -3.7 17 11.4 N 9 17 5 9 1021.0 1019.9 0.0
19/09:30am 21.5 18.0 -2.5 20 10.5 WSW 6 9 3 5 1021.2 - 0.0
19/09:00am 21.2 18.2 -1.5 22 10.1 ESE 4 7 2 4 1021.3 1020.2 0.0
19/08:30am 19.7 16.8 -0.8 25 9.1 E 4 6 2 3 1021.2 - 0.0
19/08:00am 16.7 14.5 -1.7 28 7.8 CALM 0 2 0 1 1021.1 1020.0 0.0
19/07:30am 13.8 11.3 -1.3 35 6.3 NNE 2 4 1 2 1020.8 - 0.0
19/07:00am 8.9 5.6 -1.4 48 4.1 N 6 6 3 3 1020.6 1019.4 0.0
19/06:30am 7.9 4.9 -1.8 50 3.8 N 4 4 2 2 1020.5 - 0.0
19/06:00am 8.9 6.3 -1.9 46 4.2 N 2 4 1 2 1020.0 1018.9 0.0
19/05:30am 8.5 5.5 -1.8 48 4.0 NW 4 4 2 2 1019.8 - 0.0
19/05:00am 8.2 5.6 -2.0 48 3.9 N 2 4 1 2 1019.5 1018.4 0.0
19/04:30am 8.5 5.5 -2.1 47 4.1 NNW 4 6 2 3 1019.2 - 0.0
19/04:00am 9.8 7.1 -2.7 41 4.8 N 2 4 1 2 1019.3 1018.2 0.0
19/03:30am 10.2 7.5 -2.3 41 4.9 NNW 2 6 1 3 1019.5 - 0.0
19/03:00am 10.6 7.5 -2.3 40 5.1 NNW 4 6 2 3 1019.5 1018.4 0.0
19/02:30am 11.2 8.1 -2.3 39 5.4 W 4 4 2 2 1019.6 - 0.0
19/02:00am 11.8 8.7 -2.9 35 5.8 SSW 4 6 2 3 1019.7 1018.6 0.0
19/01:30am 13.3 10.5 -3.2 31 6.6 WSW 2 4 1 2 1019.9 - 0.0
19/01:00am 12.8 9.7 -3.0 33 6.3 NW 4 7 2 4 1020.0 1018.9 0.0
19/12:30am 13.3 9.2 -3.2 31 6.6 N 9 11 5 6 1020.3 - 0.0
19/12:00am 13.7 10.2 -3.1 31 6.7 N 6 7 3 4 1020.5 1019.3 0.0
 
Date/Time
WST
Temp
°C
App
Temp
°C
Dew
Point
Rel
Hum
%
Delta-T
°C
Wind Press
QNH
hPa
Press
MSL
hPa
Rain
since 9 am
mm
Dir
 
Spd
km/h
Gust
km/h
Spd
kts
Gust
kts
18/11:30pm 14.2 11.0 -3.4 29 7.0 N 4 6 2 3 1020.7 - 0.0
18/11:00pm 14.2 10.6 -3.3 29 7.0 N 6 7 3 4 1020.8 1019.6 0.0
18/10:30pm 16.7 12.1 -4.0 24 8.4 NNE 11 13 6 7 1020.8 - 0.0
18/10:00pm 16.4 11.8 -3.9 24 8.2 NNE 11 11 6 6 1020.7 1019.5 0.0
18/09:30pm 16.7 12.5 -3.9 24 8.4 NE 9 11 5 6 1020.7 - 0.0
18/09:00pm 14.7 11.0 -3.2 29 7.2 NNE 7 9 4 5 1020.7 1019.5 0.0
18/08:30pm 17.4 13.2 -4.2 22 8.8 NNE 9 11 5 6 1020.6 - 0.0
18/08:00pm 16.1 13.0 -2.8 27 7.8 NE 4 7 2 4 1020.4 1019.2 0.0
18/07:30pm 16.5 13.7 -3.0 26 8.1 NNE 2 6 1 3 1019.9 - 0.0
18/07:00pm 18.6 15.7 -3.8 21 9.3 NE 2 4 1 2 1019.4 1018.3 0.0
18/06:30pm 20.2 16.9 -4.3 19 10.2 E 4 4 2 2 1019.2 - 0.0

Other Formats:

Comma delimited format used in spreadsheet applications
http://www.bom.gov.au/fwo/IDW60801/IDW60801.99736.axf

JavaScript Object Notation format (JSON) in row-major order
http://www.bom.gov.au/fwo/IDW60801/IDW60801.99736.json